Time;durP1;ratioP1;P1;durP2;ratioP2;P2;SDS_P1;SDS_P2;PMS_P1;PMS_P2;Temp;Humidity;BMP_temperature;BMP_pressure;BME280_temperature;BME280_humidity;BME280_pressure;Samples;Min_cycle;Max_cycle;Signal;HPM_P1;HPM_P2
2022/10/05 00:00:12;;;;;;;6.57;4.37;;;;;;;;;;5054670;28;20690;-82
2022/10/05 00:02:39;;;;;;;4.80;4.40;;;;;;;;;;5054506;28;20205;-82
2022/10/05 00:05:14;;;;;;;4.80;4.27;;;;;;;;;;5054738;28;20202;-82
2022/10/05 00:07:43;;;;;;;5.67;4.03;;;;;;;;;;5054201;28;20217;-82
2022/10/05 00:10:12;;;;;;;4.37;3.97;;;;;;;;;;5054832;28;20222;-82
2022/10/05 00:12:39;;;;;;;5.07;4.00;;;;;;;;;;5054382;28;20201;-83
2022/10/05 00:15:10;;;;;;;4.63;3.80;;;;;;;;;;5054705;28;20213;-82
2022/10/05 00:17:37;;;;;;;4.77;4.20;;;;;;;;;;5053766;28;20198;-83
2022/10/05 00:20:14;;;;;;;5.93;4.00;;;;;;;;;;5054375;28;20236;-83
2022/10/05 00:22:43;;;;;;;5.13;4.53;;;;;;;;;;5054345;28;20198;-83
2022/10/05 00:25:12;;;;;;;6.43;4.13;;;;;;;;;;5054716;28;20225;-82
2022/10/05 00:27:40;;;;;;;4.87;4.47;;;;;;;;;;5053574;28;20195;-83
2022/10/05 00:30:13;;;;;;;4.60;4.20;;;;;;;;;;5054253;28;20237;-82
2022/10/05 00:32:41;;;;;;;4.70;4.03;;;;;;;;;;5053749;28;20189;-83
2022/10/05 00:35:08;;;;;;;4.87;4.47;;;;;;;;;;5054495;28;20559;-83
2022/10/05 00:37:36;;;;;;;9.03;4.23;;;;;;;;;;5053770;28;20221;-83
2022/10/05 00:40:08;;;;;;;7.33;4.30;;;;;;;;;;5053845;28;20594;-83
2022/10/05 00:42:40;;;;;;;6.70;4.60;;;;;;;;;;5053925;28;20191;-84
2022/10/05 00:45:10;;;;;;;7.17;4.37;;;;;;;;;;5054276;28;20186;-83
2022/10/05 00:47:39;;;;;;;6.10;4.37;;;;;;;;;;5053156;28;20209;-84
2022/10/05 00:50:17;;;;;;;4.53;3.80;;;;;;;;;;5053083;28;20218;-83
2022/10/05 00:52:49;;;;;;;8.13;4.40;;;;;;;;;;5053381;28;20689;-84
2022/10/05 00:55:21;;;;;;;5.63;3.80;;;;;;;;;;5054144;28;20201;-82
2022/10/05 00:57:52;;;;;;;6.83;4.30;;;;;;;;;;5053273;28;20234;-83
2022/10/05 01:00:20;;;;;;;4.63;3.90;;;;;;;;;;5053776;28;20575;-83
2022/10/05 01:02:52;;;;;;;5.53;3.63;;;;;;;;;;5053327;28;20237;-83
2022/10/05 01:05:25;;;;;;;4.10;3.70;;;;;;;;;;5044134;28;20666;-83
2022/10/05 01:07:57;;;;;;;3.60;3.30;;;;;;;;;;5053192;28;20234;-83
2022/10/05 01:10:31;;;;;;;4.23;3.83;;;;;;;;;;5053510;28;20237;-83
2022/10/05 01:13:03;;;;;;;4.03;3.63;;;;;;;;;;5053099;28;20244;-83
2022/10/05 01:15:32;;;;;;;5.40;3.93;;;;;;;;;;5053459;28;20209;-83
2022/10/05 01:18:03;;;;;;;9.33;4.20;;;;;;;;;;5054238;28;20620;-84
2022/10/05 01:20:40;;;;;;;8.57;4.60;;;;;;;;;;5053806;28;20713;-83
2022/10/05 01:23:22;;;;;;;6.93;4.30;;;;;;;;;;5053463;28;20233;-83
2022/10/05 01:25:57;;;;;;;7.57;4.40;;;;;;;;;;5010367;28;20661;-83
2022/10/05 01:28:28;;;;;;;6.20;4.90;;;;;;;;;;5052845;28;20256;-84
2022/10/05 01:31:43;;;;;;;6.23;4.87;;;;;;;;;;5054942;28;20234;-92
2022/10/05 01:34:14;;;;;;;7.13;4.07;;;;;;;;;;5054005;28;20234;-92
2022/10/05 01:36:44;;;;;;;7.03;4.37;;;;;;;;;;5055973;28;20281;-92
2022/10/05 01:39:15;;;;;;;5.37;4.30;;;;;;;;;;5055156;28;20237;-91
2022/10/05 01:41:52;;;;;;;5.10;4.00;;;;;;;;;;5055200;28;20220;-92
2022/10/05 01:44:22;;;;;;;4.07;3.77;;;;;;;;;;5054220;28;20316;-92
2022/10/05 01:46:52;;;;;;;4.87;3.80;;;;;;;;;;5054779;28;20205;-92
2022/10/05 01:49:30;;;;;;;6.00;4.50;;;;;;;;;;5054025;28;20233;-92
2022/10/05 01:52:03;;;;;;;10.40;4.30;;;;;;;;;;5054529;28;20201;-92
2022/10/05 01:54:37;;;;;;;5.37;3.83;;;;;;;;;;5053559;28;20230;-90
2022/10/05 01:57:06;;;;;;;6.07;4.53;;;;;;;;;;5054284;28;20210;-92
2022/10/05 01:59:42;;;;;;;5.30;4.00;;;;;;;;;;5053802;28;20238;-92
2022/10/05 02:02:12;;;;;;;6.90;4.10;;;;;;;;;;5054514;28;20182;-92
2022/10/05 02:04:43;;;;;;;5.53;4.43;;;;;;;;;;5053099;28;20248;-92
2022/10/05 02:07:14;;;;;;;7.27;4.17;;;;;;;;;;5053910;28;20218;-92
2022/10/05 02:09:42;;;;;;;5.53;4.60;;;;;;;;;;5053177;28;20283;-93
2022/10/05 02:12:13;;;;;;;5.17;4.00;;;;;;;;;;5053678;28;20202;-92
2022/10/05 02:14:43;;;;;;;6.30;4.90;;;;;;;;;;5053136;28;20229;-93
2022/10/05 02:17:14;;;;;;;5.43;4.20;;;;;;;;;;5053921;28;20237;-91
2022/10/05 02:19:42;;;;;;;9.33;4.57;;;;;;;;;;5052676;28;20240;-92
2022/10/05 02:22:12;;;;;;;5.87;4.10;;;;;;;;;;5053945;28;20206;-92
2022/10/05 02:24:41;;;;;;;6.83;4.63;;;;;;;;;;5053039;28;20244;-92
2022/10/05 02:27:09;;;;;;;4.73;3.60;;;;;;;;;;5053296;28;20209;-93
2022/10/05 02:29:37;;;;;;;6.23;4.03;;;;;;;;;;5052813;28;20238;-92
2022/10/05 02:32:08;;;;;;;4.53;4.07;;;;;;;;;;5053291;28;20289;-93
2022/10/05 02:34:45;;;;;;;4.10;3.70;;;;;;;;;;5053523;28;20237;-93
2022/10/05 02:37:21;;;;;;;4.33;3.93;;;;;;;;;;5053558;28;20215;-93
2022/10/05 02:39:52;;;;;;;3.90;3.50;;;;;;;;;;5052673;28;20238;-93
2022/10/05 02:42:23;;;;;;;3.77;3.47;;;;;;;;;;5052931;28;20730;-93
2022/10/05 02:44:54;;;;;;;4.20;3.87;;;;;;;;;;5052646;28;20248;-93
2022/10/05 02:47:28;;;;;;;5.47;3.80;;;;;;;;;;5053329;28;20189;-93
2022/10/05 02:50:00;;;;;;;4.37;3.53;;;;;;;;;;5052920;28;20584;-92
2022/10/05 02:52:30;;;;;;;4.60;3.77;;;;;;;;;;5052780;28;20205;-93
2022/10/05 02:55:01;;;;;;;3.90;3.60;;;;;;;;;;5053134;28;20214;-93
2022/10/05 02:57:29;;;;;;;7.13;4.13;;;;;;;;;;5052505;28;20209;-92
2022/10/05 03:00:00;;;;;;;4.47;3.50;;;;;;;;;;5053191;28;20225;-93
2022/10/05 03:02:32;;;;;;;4.17;3.43;;;;;;;;;;5052503;28;20191;-92
2022/10/05 03:05:04;;;;;;;5.87;4.07;;;;;;;;;;5053262;28;20195;-91
2022/10/05 03:07:33;;;;;;;4.57;4.17;;;;;;;;;;5052685;28;20228;-93
2022/10/05 03:10:03;;;;;;;4.00;3.63;;;;;;;;;;5052929;28;20564;-92
2022/10/05 03:12:38;;;;;;;5.43;3.27;;;;;;;;;;5054966;28;20514;-92
2022/10/05 03:15:13;;;;;;;3.27;3.07;;;;;;;;;;5057333;28;20215;-92
2022/10/05 03:17:45;;;;;;;3.73;3.43;;;;;;;;;;5056644;28;20560;-92
2022/10/05 03:20:18;;;;;;;5.07;3.50;;;;;;;;;;5056600;28;20229;-92
2022/10/05 03:22:48;;;;;;;6.23;3.53;;;;;;;;;;5056263;28;20240;-92
2022/10/05 03:25:24;;;;;;;3.90;3.23;;;;;;;;;;5056698;28;20722;-90
2022/10/05 03:27:55;;;;;;;5.90;3.40;;;;;;;;;;5056823;28;20610;-93
2022/10/05 03:30:25;;;;;;;3.60;3.30;;;;;;;;;;5057357;28;20237;-94
2022/10/05 03:32:58;;;;;;;3.37;3.07;;;;;;;;;;5057342;28;20636;-93
2022/10/05 03:35:29;;;;;;;3.90;3.37;;;;;;;;;;5061741;28;20205;-93
2022/10/05 03:38:01;;;;;;;4.47;3.50;;;;;;;;;;5062586;28;20294;-93
2022/10/05 03:40:32;;;;;;;3.63;3.33;;;;;;;;;;5059238;28;20416;-93
2022/10/05 03:43:04;;;;;;;6.60;3.40;;;;;;;;;;5057576;28;20312;-93
2022/10/05 03:45:37;;;;;;;5.53;4.30;;;;;;;;;;5057606;28;20272;-94
2022/10/05 03:48:08;;;;;;;4.67;4.27;;;;;;;;;;5057068;28;20264;-94
2022/10/05 03:50:41;;;;;;;5.40;4.77;;;;;;;;;;5057821;28;20260;-93
2022/10/05 03:53:20;;;;;;;5.80;4.80;;;;;;;;;;5057034;28;20280;-93
2022/10/05 03:55:50;;;;;;;6.63;4.10;;;;;;;;;;5057143;28;20634;-93
2022/10/05 03:58:21;;;;;;;8.30;4.30;;;;;;;;;;5057129;28;20230;-93
2022/10/05 04:00:49;;;;;;;4.90;4.00;;;;;;;;;;5056619;28;20229;-94
2022/10/05 04:03:23;;;;;;;4.77;4.10;;;;;;;;;;5056741;28;20873;-93
2022/10/05 04:05:53;;;;;;;4.73;3.80;;;;;;;;;;5057002;28;20193;-94
2022/10/05 04:08:23;;;;;;;5.03;4.23;;;;;;;;;;5056093;28;20313;-93
2022/10/05 04:10:52;;;;;;;7.23;4.30;;;;;;;;;;5056825;28;20232;-93
2022/10/05 04:13:22;;;;;;;8.03;4.83;;;;;;;;;;5055644;28;20237;-93
2022/10/05 04:15:53;;;;;;;6.27;5.07;;;;;;;;;;5056186;28;20647;-92
2022/10/05 04:18:24;;;;;;;5.67;4.87;;;;;;;;;;5055770;28;20257;-92
2022/10/05 04:20:53;;;;;;;5.93;4.90;;;;;;;;;;5055555;28;20240;-92
2022/10/05 04:23:24;;;;;;;6.17;5.57;;;;;;;;;;5055105;28;20230;-93
2022/10/05 04:25:53;;;;;;;6.30;4.57;;;;;;;;;;5058496;28;20210;-94
2022/10/05 04:28:24;;;;;;;7.30;5.50;;;;;;;;;;5069559;28;20229;-94
2022/10/05 04:30:52;;;;;;;5.73;4.37;;;;;;;;;;5072123;28;20252;-94
2022/10/05 04:33:21;;;;;;;5.90;5.00;;;;;;;;;;5070528;28;20238;-91
2022/10/05 04:36:02;;;;;;;9.53;4.70;;;;;;;;;;5074794;28;20279;-91
2022/10/05 04:38:44;;;;;;;12.87;5.50;;;;;;;;;;5065210;28;20244;-92
2022/10/05 04:41:22;;;;;;;8.33;4.73;;;;;;;;;;5055694;28;20226;-92
2022/10/05 04:43:57;;;;;;;7.37;4.73;;;;;;;;;;5054719;28;20238;-91
2022/10/05 04:46:29;;;;;;;5.13;4.63;;;;;;;;;;5055903;28;20714;-92
2022/10/05 04:49:10;;;;;;;8.07;5.03;;;;;;;;;;5055137;28;20230;-92
2022/10/05 04:51:43;;;;;;;5.77;4.63;;;;;;;;;;5055258;28;20186;-92
2022/10/05 04:54:16;;;;;;;6.80;4.77;;;;;;;;;;5055838;28;20781;-92
2022/10/05 04:56:46;;;;;;;5.13;4.70;;;;;;;;;;5055995;28;20190;-94
2022/10/05 04:59:23;;;;;;;8.47;5.03;;;;;;;;;;5055603;28;20233;-93
2022/10/05 05:01:59;;;;;;;5.77;4.87;;;;;;;;;;5055039;28;20197;-93
2022/10/05 05:04:35;;;;;;;6.67;4.83;;;;;;;;;;5055728;28;20614;-92
2022/10/05 05:07:11;;;;;;;7.30;5.13;;;;;;;;;;5055352;28;20630;-94
2022/10/05 05:09:55;;;;;;;5.33;4.83;;;;;;;;;;5053748;28;20243;-93
2022/10/05 05:12:28;;;;;;;5.20;4.70;;;;;;;;;;5054725;28;20190;-93
2022/10/05 05:15:04;;;;;;;6.67;5.13;;;;;;;;;;5054235;28;20224;-93
2022/10/05 05:17:43;;;;;;;5.93;5.03;;;;;;;;;;5054064;28;20685;-93
2022/10/05 05:20:18;;;;;;;8.83;5.30;;;;;;;;;;5053857;28;20230;-93
2022/10/05 05:22:49;;;;;;;6.50;5.40;;;;;;;;;;5053703;28;20240;-93
2022/10/05 05:25:22;;;;;;;8.13;5.60;;;;;;;;;;5054161;28;20627;-93
2022/10/05 05:27:50;;;;;;;7.27;5.27;;;;;;;;;;5053334;28;20229;-93
2022/10/05 05:30:21;;;;;;;9.17;5.20;;;;;;;;;;5054054;28;20222;-92
2022/10/05 05:32:55;;;;;;;9.00;5.23;;;;;;;;;;5053131;28;20693;-91
2022/10/05 05:35:30;;;;;;;5.47;5.00;;;;;;;;;;5053594;28;20635;-93
2022/10/05 05:38:03;;;;;;;5.77;5.00;;;;;;;;;;5053875;28;20599;-92
2022/10/05 05:40:33;;;;;;;6.67;5.30;;;;;;;;;;5053361;28;20234;-91
2022/10/05 05:43:03;;;;;;;6.53;4.90;;;;;;;;;;5053163;28;20238;-91
2022/10/05 05:45:35;;;;;;;8.57;5.33;;;;;;;;;;5053779;28;20202;-91
2022/10/05 05:48:03;;;;;;;8.50;5.20;;;;;;;;;;5052607;28;20230;-91
2022/10/05 05:50:34;;;;;;;7.50;5.73;;;;;;;;;;5053164;28;20222;-91
2022/10/05 05:53:05;;;;;;;7.70;5.90;;;;;;;;;;5052829;28;20716;-90
2022/10/05 05:55:36;;;;;;;6.73;5.40;;;;;;;;;;5053448;28;20195;-91
2022/10/05 05:58:05;;;;;;;8.57;5.53;;;;;;;;;;5052771;28;20234;-91
2022/10/05 06:00:33;;;;;;;8.77;5.90;;;;;;;;;;5052849;28;20268;-91
2022/10/05 06:03:03;;;;;;;6.83;5.27;;;;;;;;;;5053029;28;20236;-91
2022/10/05 06:05:32;;;;;;;5.87;5.10;;;;;;;;;;5054239;28;20198;-91
2022/10/05 06:08:02;;;;;;;8.40;5.60;;;;;;;;;;5052577;28;20240;-92
2022/10/05 06:10:34;;;;;;;6.50;5.40;;;;;;;;;;5052897;28;20233;-92
2022/10/05 06:13:05;;;;;;;11.13;6.17;;;;;;;;;;5052778;28;20230;-91
2022/10/05 06:15:34;;;;;;;10.07;6.87;;;;;;;;;;5053866;28;20198;-92
2022/10/05 06:18:03;;;;;;;8.07;6.40;;;;;;;;;;5054424;28;20627;-90
2022/10/05 06:20:34;;;;;;;14.57;6.90;;;;;;;;;;5057226;28;20230;-90
2022/10/05 06:23:02;;;;;;;10.47;7.47;;;;;;;;;;5052644;28;20233;-90
2022/10/05 06:25:36;;;;;;;10.23;6.77;;;;;;;;;;5053216;28;20202;-91
2022/10/05 06:28:04;;;;;;;9.97;6.60;;;;;;;;;;5053142;28;20275;-91
2022/10/05 06:30:35;;;;;;;10.03;6.20;;;;;;;;;;5053790;28;20228;-91
2022/10/05 06:33:07;;;;;;;6.87;6.10;;;;;;;;;;5054191;28;20230;-91
2022/10/05 06:35:41;;;;;;;7.57;5.50;;;;;;;;;;5052996;28;20220;-89
2022/10/05 06:38:15;;;;;;;10.97;6.50;;;;;;;;;;5051775;28;20342;-89
2022/10/05 06:40:53;;;;;;;7.70;5.83;;;;;;;;;;5052300;28;20229;-89
2022/10/05 06:43:30;;;;;;;6.10;5.50;;;;;;;;;;5051661;28;20233;-89
2022/10/05 06:46:04;;;;;;;12.20;6.00;;;;;;;;;;5052179;28;20300;-89
2022/10/05 06:48:41;;;;;;;10.00;6.33;;;;;;;;;;5051848;28;20722;-90
2022/10/05 06:51:12;;;;;;;8.43;6.53;;;;;;;;;;5052705;28;20221;-89
2022/10/05 06:53:42;;;;;;;10.17;6.93;;;;;;;;;;5052799;28;20233;-89
2022/10/05 06:56:14;;;;;;;11.50;7.37;;;;;;;;;;5054166;28;20197;-89
2022/10/05 06:58:49;;;;;;;13.97;7.83;;;;;;;;;;5053276;28;20616;-89
2022/10/05 07:01:19;;;;;;;12.83;8.10;;;;;;;;;;5053532;28;20229;-89
2022/10/05 07:04:05;;;;;;;11.27;8.87;;;;;;;;;;5053713;28;20256;-89
2022/10/05 07:06:34;;;;;;;13.97;10.03;;;;;;;;;;5055169;28;20196;-89
2022/10/05 07:09:08;;;;;;;15.33;10.07;;;;;;;;;;5053944;28;20241;-89
2022/10/05 07:11:45;;;;;;;16.07;10.70;;;;;;;;;;5058132;28;20698;-89
2022/10/05 07:14:21;;;;;;;16.20;11.90;;;;;;;;;;5055374;28;20244;-89
2022/10/05 07:17:04;;;;;;;24.13;12.83;;;;;;;;;;5056975;28;20194;-90
2022/10/05 07:19:35;;;;;;;23.83;13.30;;;;;;;;;;5054098;28;20242;-92
2022/10/05 07:22:10;;;;;;;29.40;13.87;;;;;;;;;;5052726;28;20226;-91
2022/10/05 07:24:41;;;;;;;27.27;17.33;;;;;;;;;;5052459;28;20230;-92
2022/10/05 07:27:13;;;;;;;25.57;16.30;;;;;;;;;;5052957;28;20190;-91
2022/10/05 07:29:48;;;;;;;30.20;17.57;;;;;;;;;;5052538;28;20250;-92
2022/10/05 07:32:23;;;;;;;31.73;18.03;;;;;;;;;;5054283;28;20240;-94
2022/10/05 07:34:53;;;;;;;34.47;19.20;;;;;;;;;;5053804;28;20568;-94
2022/10/05 07:40:13;;;;;;;39.47;21.57;;;;;;;;;;5056804;28;20312;-90
2022/10/05 07:42:45;;;;;;;35.90;20.63;;;;;;;;;;5055309;28;20221;-93
2022/10/05 07:45:17;;;;;;;34.00;23.23;;;;;;;;;;5053227;28;20191;-91
2022/10/05 07:47:48;;;;;;;47.60;24.47;;;;;;;;;;5052687;28;20715;-92
2022/10/05 07:50:20;;;;;;;43.93;23.57;;;;;;;;;;5056832;28;20218;-93
2022/10/05 07:52:50;;;;;;;42.17;25.33;;;;;;;;;;5058273;28;20690;-93
2022/10/05 07:55:19;;;;;;;47.13;25.47;;;;;;;;;;5055347;28;20194;-93
2022/10/05 07:57:53;;;;;;;49.83;26.97;;;;;;;;;;5058957;28;20233;-92
2022/10/05 08:00:21;;;;;;;47.83;26.83;;;;;;;;;;5059477;28;20228;-93
2022/10/05 08:02:49;;;;;;;45.80;26.50;;;;;;;;;;5059138;28;20697;-93
2022/10/05 08:05:20;;;;;;;51.53;31.27;;;;;;;;;;5060029;28;20209;-92
2022/10/05 08:07:49;;;;;;;54.57;29.67;;;;;;;;;;5059362;28;20225;-92
2022/10/05 08:10:24;;;;;;;51.93;29.80;;;;;;;;;;5052907;28;20257;-91
2022/10/05 08:13:04;;;;;;;51.13;29.33;;;;;;;;;;5059850;28;20225;-91
2022/10/05 08:15:34;;;;;;;47.50;29.07;;;;;;;;;;5058177;28;20205;-91
2022/10/05 08:18:03;;;;;;;50.53;30.80;;;;;;;;;;5059713;28;20233;-91
2022/10/05 08:20:33;;;;;;;53.53;31.13;;;;;;;;;;5059823;28;20253;-92
2022/10/05 08:23:02;;;;;;;50.87;33.80;;;;;;;;;;5057339;28;20237;-90
2022/10/05 08:25:38;;;;;;;56.03;34.10;;;;;;;;;;5056664;28;20198;-94
2022/10/05 08:28:10;;;;;;;54.47;33.27;;;;;;;;;;5036656;28;20238;-92
2022/10/05 08:30:40;;;;;;;52.40;34.43;;;;;;;;;;5050266;28;20229;-92
2022/10/05 08:33:10;;;;;;;53.73;36.13;;;;;;;;;;5055816;28;20233;-91
2022/10/05 08:35:39;;;;;;;53.13;35.67;;;;;;;;;;5056270;28;20670;-91
2022/10/05 08:38:10;;;;;;;56.90;35.77;;;;;;;;;;5056484;28;20233;-90
2022/10/05 08:40:51;;;;;;;52.00;36.10;;;;;;;;;;5056666;28;20230;-91
2022/10/05 08:43:27;;;;;;;58.47;37.10;;;;;;;;;;5055723;28;20697;-89
2022/10/05 08:46:03;;;;;;;55.87;35.97;;;;;;;;;;5056118;28;20210;-91
2022/10/05 08:48:45;;;;;;;52.57;36.07;;;;;;;;;;5055463;28;20233;-93
2022/10/05 08:51:24;;;;;;;53.00;35.90;;;;;;;;;;5055001;28;20737;-92
2022/10/05 08:54:03;;;;;;;56.20;35.90;;;;;;;;;;5054798;28;20234;-91
2022/10/05 08:56:33;;;;;;;46.73;32.83;;;;;;;;;;5055282;28;20209;-93
2022/10/05 08:59:14;;;;;;;40.37;31.97;;;;;;;;;;5054965;28;20590;-94
2022/10/05 09:01:50;;;;;;;43.90;29.63;;;;;;;;;;5054865;28;20210;-92
2022/10/05 09:04:23;;;;;;;31.67;25.37;;;;;;;;;;5054314;28;20237;-91
2022/10/05 09:06:55;;;;;;;31.13;23.20;;;;;;;;;;5055246;28;20191;-91
2022/10/05 09:09:30;;;;;;;24.77;20.93;;;;;;;;;;5053864;28;20238;-90
2022/10/05 09:12:18;;;;;;;18.93;14.57;;;;;;;;;;5035946;28;20282;-93
2022/10/05 09:14:50;;;;;;;7.53;6.70;;;;;;;;;;5034215;28;20288;-90
2022/10/05 09:17:25;;;;;;;7.47;5.43;;;;;;;;;;5036203;28;20187;-92
2022/10/05 09:19:53;;;;;;;5.43;4.93;;;;;;;;;;5034850;28;20233;-91
2022/10/05 09:22:30;;;;;;;4.40;4.00;;;;;;;;;;5035159;28;20695;-91
2022/10/05 09:24:58;;;;;;;4.00;3.67;;;;;;;;;;5044919;28;20229;-90
2022/10/05 09:27:34;;;;;;;3.57;3.27;;;;;;;;;;5054583;28;20206;-91
2022/10/05 09:30:13;;;;;;;6.07;3.00;;;;;;;;;;5055060;28;20233;-92
2022/10/05 09:33:01;;;;;;;2.90;2.53;;;;;;;;;;5054429;28;20558;-91
2022/10/05 09:35:43;;;;;;;5.33;2.93;;;;;;;;;;5006581;28;20211;-92
2022/10/05 09:38:18;;;;;;;2.57;2.37;;;;;;;;;;5037469;28;20222;-92
2022/10/05 09:41:09;;;;;;;2.70;2.50;;;;;;;;;;5037694;28;20253;-90
2022/10/05 09:43:55;;;;;;;2.90;2.50;;;;;;;;;;5015878;28;20230;-90
2022/10/05 09:46:34;;;;;;;2.63;2.43;;;;;;;;;;5035795;28;20640;-91
2022/10/05 09:49:10;;;;;;;2.73;2.07;;;;;;;;;;5036510;28;20241;-91
2022/10/05 09:51:55;;;;;;;1.73;1.63;;;;;;;;;;5037905;28;20191;-91
2022/10/05 09:54:43;;;;;;;2.37;2.17;;;;;;;;;;5039300;28;20265;-92
2022/10/05 09:57:22;;;;;;;4.13;2.00;;;;;;;;;;5056833;28;20202;-92
2022/10/05 10:00:09;;;;;;;2.08;1.98;;;;;;;;;;5058482;28;20244;-94
2022/10/05 10:03:04;;;;;;;2.30;2.10;;;;;;;;;;5056462;28;20217;-90
2022/10/05 10:05:56;;;;;;;2.30;2.00;;;;;;;;;;5062448;28;20274;-90
2022/10/05 10:08:32;;;;;;;1.92;1.83;;;;;;;;;;5056031;28;20321;-92
2022/10/05 10:11:07;;;;;;;2.08;1.80;;;;;;;;;;5058269;28;20283;-92
2022/10/05 10:13:52;;;;;;;2.15;2.03;;;;;;;;;;5055574;28;20720;-91
2022/10/05 10:16:27;;;;;;;4.30;2.00;;;;;;;;;;5054067;28;20252;-92
2022/10/05 10:19:21;;;;;;;2.58;1.90;;;;;;;;;;5045678;28;20233;-92
2022/10/05 10:21:58;;;;;;;1.70;1.60;;;;;;;;;;5032223;28;20230;-92
2022/10/05 10:24:42;;;;;;;2.22;2.03;;;;;;;;;;5055864;28;20232;-92
2022/10/05 10:27:16;;;;;;;2.42;2.15;;;;;;;;;;5056544;28;20643;-92
2022/10/05 10:30:02;;;;;;;2.53;1.80;;;;;;;;;;5061516;28;20242;-92
2022/10/05 10:32:50;;;;;;;2.30;1.75;;;;;;;;;;5054642;28;20206;-94
2022/10/05 10:35:31;;;;;;;2.80;2.58;;;;;;;;;;5055907;28;20217;-91
2022/10/05 10:38:15;;;;;;;4.05;1.90;;;;;;;;;;5055604;28;20233;-91
2022/10/05 10:40:53;;;;;;;5.05;1.90;;;;;;;;;;5047405;28;20237;-91
2022/10/05 10:43:32;;;;;;;2.05;1.88;;;;;;;;;;5055340;28;20240;-92
2022/10/05 10:46:02;;;;;;;3.17;2.03;;;;;;;;;;5055328;28;20667;-93
2022/10/05 10:48:47;;;;;;;2.00;1.77;;;;;;;;;;5063846;28;20252;-92
2022/10/05 10:51:19;;;;;;;2.17;1.90;;;;;;;;;;5071862;28;20228;-92
2022/10/05 10:54:02;;;;;;;3.15;2.05;;;;;;;;;;5072040;28;20491;-92
2022/10/05 10:56:44;;;;;;;2.40;2.10;;;;;;;;;;5066665;28;20221;-92
2022/10/05 10:59:31;;;;;;;2.40;1.83;;;;;;;;;;5055201;28;20246;-91
2022/10/05 11:02:10;;;;;;;1.98;1.80;;;;;;;;;;5055960;28;20708;-91
2022/10/05 11:04:52;;;;;;;2.22;2.00;;;;;;;;;;5053205;28;20335;-90
2022/10/05 11:07:34;;;;;;;2.08;1.80;;;;;;;;;;5053145;28;20575;-91
2022/10/05 11:10:13;;;;;;;5.63;2.13;;;;;;;;;;5050032;28;20234;-91
2022/10/05 11:12:50;;;;;;;2.20;2.00;;;;;;;;;;5053030;28;20216;-91
2022/10/05 11:15:38;;;;;;;4.07;2.53;;;;;;;;;;5052926;28;20197;-90
2022/10/05 11:18:18;;;;;;;2.10;1.90;;;;;;;;;;5018534;28;20233;-91
2022/10/05 11:21:04;;;;;;;3.45;2.08;;;;;;;;;;5053532;28;20233;-93
2022/10/05 11:24:04;;;;;;;3.83;2.40;;;;;;;;;;5051793;28;20233;-93
2022/10/05 11:26:36;;;;;;;2.30;2.05;;;;;;;;;;4991186;28;20703;-92
2022/10/05 11:29:25;;;;;;;2.53;2.10;;;;;;;;;;4990019;28;20235;-90
2022/10/05 11:32:10;;;;;;;4.03;2.30;;;;;;;;;;5020193;28;20218;-89
2022/10/05 11:34:58;;;;;;;2.13;1.90;;;;;;;;;;5047475;28;20229;-91
2022/10/05 11:37:44;;;;;;;3.83;2.30;;;;;;;;;;5055552;28;20209;-90
2022/10/05 11:40:32;;;;;;;2.38;2.17;;;;;;;;;;5056344;28;20226;-91
2022/10/05 11:43:20;;;;;;;4.18;2.75;;;;;;;;;;5047091;28;20244;-89
2022/10/05 11:45:57;;;;;;;3.03;2.55;;;;;;;;;;5031359;28;20626;-88
2022/10/05 11:48:45;;;;;;;3.58;2.50;;;;;;;;;;5056022;28;20717;-87
2022/10/05 11:51:33;;;;;;;2.40;2.20;;;;;;;;;;5056131;28;20240;-91
2022/10/05 11:54:07;;;;;;;3.53;2.47;;;;;;;;;;5055650;28;20312;-89
2022/10/05 11:56:36;;;;;;;2.35;2.10;;;;;;;;;;5057177;28;20217;-89
2022/10/05 11:59:08;;;;;;;3.63;2.15;;;;;;;;;;5055377;28;20238;-91
2022/10/05 12:01:40;;;;;;;3.83;2.20;;;;;;;;;;5057022;28;20193;-91
2022/10/05 12:04:14;;;;;;;2.30;2.20;;;;;;;;;;5055662;28;20236;-88
2022/10/05 12:06:52;;;;;;;2.28;2.08;;;;;;;;;;5056482;28;20194;-90
2022/10/05 12:09:26;;;;;;;2.67;2.45;;;;;;;;;;5055463;28;20245;-90
2022/10/05 12:12:00;;;;;;;3.22;2.50;;;;;;;;;;5056289;28;20201;-90
2022/10/05 12:14:34;;;;;;;3.00;2.25;;;;;;;;;;5057746;28;20237;-90
2022/10/05 12:17:06;;;;;;;4.13;2.20;;;;;;;;;;5057417;28;20189;-88
2022/10/05 12:19:36;;;;;;;2.80;2.45;;;;;;;;;;5077015;28;20302;-88
2022/10/05 12:22:05;;;;;;;4.18;2.53;;;;;;;;;;5078033;28;20225;-90
2022/10/05 12:24:48;;;;;;;2.83;2.50;;;;;;;;;;5078510;28;20264;-90
2022/10/05 12:27:19;;;;;;;2.97;2.13;;;;;;;;;;5078164;28;20208;-90
2022/10/05 12:29:50;;;;;;;2.17;1.98;;;;;;;;;;5075202;28;20697;-90
2022/10/05 12:32:20;;;;;;;3.90;2.28;;;;;;;;;;5063590;28;20650;-91
2022/10/05 12:34:53;;;;;;;4.63;2.00;;;;;;;;;;5057654;28;20237;-90
2022/10/05 12:37:32;;;;;;;3.45;2.20;;;;;;;;;;5057297;28;20201;-89
2022/10/05 12:40:04;;;;;;;2.30;2.10;;;;;;;;;;5056834;28;20724;-90
2022/10/05 12:42:36;;;;;;;3.45;2.38;;;;;;;;;;5057032;28;20225;-90
2022/10/05 12:45:12;;;;;;;2.20;1.95;;;;;;;;;;5056298;28;20193;-90
2022/10/05 12:47:45;;;;;;;3.50;2.00;;;;;;;;;;5054680;28;20213;-87
2022/10/05 12:50:19;;;;;;;2.75;2.00;;;;;;;;;;5056879;28;20233;-88
2022/10/05 12:52:51;;;;;;;2.88;2.28;;;;;;;;;;5055757;28;20233;-89
2022/10/05 12:55:24;;;;;;;2.28;2.08;;;;;;;;;;5056031;28;20190;-89
2022/10/05 12:57:55;;;;;;;2.65;2.28;;;;;;;;;;5054380;28;20599;-88
2022/10/05 13:00:22;;;;;;;2.58;2.38;;;;;;;;;;5055059;28;20233;-88
2022/10/05 13:02:51;;;;;;;2.65;2.03;;;;;;;;;;5054657;28;20237;-88
2022/10/05 13:05:21;;;;;;;3.22;2.08;;;;;;;;;;5035013;28;20203;-89
2022/10/05 13:07:59;;;;;;;3.00;2.08;;;;;;;;;;5034323;28;20234;-88
2022/10/05 13:10:31;;;;;;;3.80;2.05;;;;;;;;;;5034905;28;20237;-89
2022/10/05 13:13:05;;;;;;;3.58;1.80;;;;;;;;;;5034637;28;20227;-88
2022/10/05 13:15:33;;;;;;;2.22;2.03;;;;;;;;;;5035328;28;20198;-88
2022/10/05 13:18:06;;;;;;;4.03;2.47;;;;;;;;;;5038485;28;20698;-88
2022/10/05 13:20:35;;;;;;;3.15;2.00;;;;;;;;;;5035186;28;20229;-89
2022/10/05 13:23:06;;;;;;;3.67;1.98;;;;;;;;;;5034837;28;20273;-90
2022/10/05 13:25:35;;;;;;;2.08;1.92;;;;;;;;;;5035314;28;20199;-89
2022/10/05 13:28:23;;;;;;;2.28;2.08;;;;;;;;;;5034810;28;20230;-89
2022/10/05 13:30:52;;;;;;;2.22;2.03;;;;;;;;;;5028951;28;20231;-90
2022/10/05 13:33:25;;;;;;;2.10;1.90;;;;;;;;;;5078470;22;20252;-76
2022/10/05 13:35:58;;;;;;;2.75;1.92;;;;;;;;;;5072686;28;20232;-76
2022/10/05 13:38:30;;;;;;;2.60;2.40;;;;;;;;;;5071931;28;20293;-76
2022/10/05 13:41:03;;;;;;;3.53;2.40;;;;;;;;;;5072870;28;20224;-76
2022/10/05 13:43:38;;;;;;;2.50;1.98;;;;;;;;;;5072092;28;20241;-76
2022/10/05 13:46:07;;;;;;;2.35;2.15;;;;;;;;;;5072593;28;20296;-77
2022/10/05 13:48:58;;;;;;;2.25;2.05;;;;;;;;;;5071704;28;20236;-77
2022/10/05 13:51:30;;;;;;;3.97;2.08;;;;;;;;;;5057253;28;20220;-76
2022/10/05 13:54:01;;;;;;;6.25;2.00;;;;;;;;;;5072012;28;20240;-76
2022/10/05 13:56:30;;;;;;;2.20;1.98;;;;;;;;;;5071802;28;20534;-77
2022/10/05 13:59:03;;;;;;;4.88;2.10;;;;;;;;;;5071669;28;20236;-76
2022/10/05 14:01:35;;;;;;;2.00;1.80;;;;;;;;;;5072321;28;20212;-76
2022/10/05 14:04:07;;;;;;;5.22;2.10;;;;;;;;;;5071457;28;20229;-77
2022/10/05 14:06:36;;;;;;;4.03;1.90;;;;;;;;;;5072143;28;20858;-78
2022/10/05 14:09:04;;;;;;;3.17;1.92;;;;;;;;;;5070858;28;20229;-79
2022/10/05 14:11:32;;;;;;;3.95;1.95;;;;;;;;;;5071127;28;20205;-78
2022/10/05 14:14:04;;;;;;;8.23;2.72;;;;;;;;;;5071403;28;20224;-77
2022/10/05 14:16:32;;;;;;;1.90;1.80;;;;;;;;;;5072225;28;20275;-78
2022/10/05 14:19:12;;;;;;;1.90;1.80;;;;;;;;;;5071269;28;20344;-78
2022/10/05 14:21:48;;;;;;;2.30;2.08;;;;;;;;;;5072045;28;20209;-77
2022/10/05 14:24:19;;;;;;;1.85;1.73;;;;;;;;;;5072921;28;20236;-78
2022/10/05 14:26:51;;;;;;;3.05;2.00;;;;;;;;;;5073323;28;20216;-78
2022/10/05 14:29:19;;;;;;;2.53;2.05;;;;;;;;;;5072935;28;20232;-78
2022/10/05 14:31:51;;;;;;;2.35;2.15;;;;;;;;;;5073532;28;20335;-77
2022/10/05 14:34:34;;;;;;;2.03;1.92;;;;;;;;;;5072927;28;20267;-78
2022/10/05 14:37:08;;;;;;;2.30;2.10;;;;;;;;;;5073172;28;20205;-78
2022/10/05 14:39:41;;;;;;;2.00;1.75;;;;;;;;;;5073567;28;20267;-77
2022/10/05 14:42:24;;;;;;;1.95;1.85;;;;;;;;;;5073577;28;20229;-78
2022/10/05 14:45:02;;;;;;;1.80;1.70;;;;;;;;;;5073669;28;20251;-77
2022/10/05 14:50:32;;;;;;;2.40;2.20;;;;;;;;;;5073150;28;20204;-77
2022/10/05 14:53:15;;;;;;;3.25;2.13;;;;;;;;;;5072389;28;20665;-77
2022/10/05 14:55:54;;;;;;;3.30;2.15;;;;;;;;;;5073188;28;20192;-77
2022/10/05 14:58:33;;;;;;;2.15;1.95;;;;;;;;;;5072757;28;20233;-76
2022/10/05 15:01:03;;;;;;;5.15;2.17;;;;;;;;;;5073512;28;20246;-77
2022/10/05 15:03:40;;;;;;;2.60;2.13;;;;;;;;;;5071596;28;20237;-77
2022/10/05 15:06:15;;;;;;;3.58;2.22;;;;;;;;;;5071763;28;20213;-76
2022/10/05 15:08:53;;;;;;;2.15;2.05;;;;;;;;;;5073393;28;20228;-76
2022/10/05 15:11:26;;;;;;;2.55;2.33;;;;;;;;;;5075265;28;20196;-76
2022/10/05 15:13:54;;;;;;;2.78;2.20;;;;;;;;;;5075383;28;20264;-76
2022/10/05 15:16:24;;;;;;;4.68;2.85;;;;;;;;;;5075539;28;20201;-76
2022/10/05 15:18:55;;;;;;;2.47;2.28;;;;;;;;;;5075006;28;20553;-77
2022/10/05 15:21:32;;;;;;;3.50;2.40;;;;;;;;;;5075432;28;20780;-77
2022/10/05 15:24:03;;;;;;;2.40;2.17;;;;;;;;;;5066899;28;20228;-78